createdAt,value
2018-01-01T00:01:24.952Z,0.00
2018-01-01T00:02:24.888Z,0.00
2018-01-01T00:04:18.169Z,0.00
2018-01-01T00:05:18.080Z,0.00
2018-01-01T00:07:11.410Z,0.00
2018-01-01T00:08:11.311Z,0.00
2018-01-01T00:10:04.583Z,0.00
2018-01-01T00:11:04.492Z,0.00
2018-01-01T00:12:57.751Z,0.00
2018-01-01T00:13:57.682Z,0.00
2018-01-01T00:15:51.070Z,0.00
2018-01-01T00:16:50.874Z,0.00
2018-01-01T00:18:44.159Z,0.00
2018-01-01T00:19:44.065Z,0.00
2018-01-01T00:21:37.375Z,0.00
2018-01-01T00:22:37.302Z,0.00
2018-01-01T00:24:30.588Z,0.00
2018-01-01T00:25:30.497Z,0.00
2018-01-01T00:27:23.758Z,0.00
2018-01-01T00:28:23.690Z,0.00
2018-01-01T00:30:16.960Z,0.00
2018-01-01T00:31:16.873Z,0.00
2018-01-01T00:33:10.132Z,0.00
2018-01-01T00:34:10.064Z,0.00
2018-01-01T00:36:03.402Z,0.00
2018-01-01T00:37:03.315Z,0.00
2018-01-01T00:38:56.591Z,0.00
2018-01-01T00:39:56.505Z,0.00
2018-01-01T00:41:49.764Z,0.00
2018-01-01T00:42:49.688Z,0.00
2018-01-01T00:44:42.975Z,0.00
2018-01-01T00:45:42.887Z,0.00
2018-01-01T00:47:36.191Z,0.00
2018-01-01T00:48:36.078Z,0.00
2018-01-01T00:50:29.395Z,0.00
2018-01-01T00:51:29.306Z,0.00
2018-01-01T00:53:22.566Z,0.00
2018-01-01T00:54:22.498Z,0.00
2018-01-01T00:56:15.777Z,0.00
2018-01-01T00:57:15.690Z,0.00
2018-01-01T00:59:09.079Z,0.00
2018-01-01T01:00:08.887Z,0.00
2018-01-01T01:02:02.141Z,0.00
2018-01-01T01:03:02.088Z,0.00
2018-01-01T01:04:55.395Z,0.00
2018-01-01T01:05:55.309Z,0.00
2018-01-01T01:07:48.577Z,0.00
2018-01-01T01:08:48.508Z,0.00
2018-01-01T01:10:41.786Z,0.00
2018-01-01T01:11:41.698Z,0.00
2018-01-01T01:13:34.959Z,0.00
2018-01-01T01:14:34.889Z,0.00
2018-01-01T01:16:28.166Z,0.00
2018-01-01T01:17:28.080Z,0.00
2018-01-01T01:19:21.359Z,0.00
2018-01-01T01:20:21.269Z,0.00
2018-01-01T01:22:14.536Z,0.00
2018-01-01T01:23:14.469Z,0.00
2018-01-01T01:25:07.747Z,0.00
2018-01-01T01:26:07.656Z,0.00
2018-01-01T01:28:01.020Z,0.00
2018-01-01T01:29:00.862Z,0.00
2018-01-01T01:30:54.127Z,0.00
2018-01-01T01:31:54.042Z,0.00
2018-01-01T01:33:47.398Z,0.00
2018-01-01T01:34:47.309Z,0.00
2018-01-01T01:36:40.587Z,0.00
2018-01-01T01:37:40.499Z,0.00
2018-01-01T01:39:33.774Z,0.00
2018-01-01T01:40:33.692Z,0.00
2018-01-01T01:42:26.951Z,0.00
2018-01-01T01:43:26.884Z,0.00
2018-01-01T01:45:20.162Z,0.00
2018-01-01T01:46:20.072Z,0.00
2018-01-01T01:48:14.347Z,0.00
2018-01-01T01:49:14.273Z,0.00
2018-01-01T01:51:07.662Z,0.00
2018-01-01T01:52:07.465Z,0.00
2018-01-01T01:54:00.744Z,0.00
2018-01-01T01:55:00.660Z,0.00
2018-01-01T01:56:53.922Z,0.00
2018-01-01T01:57:53.850Z,0.00
2018-01-01T01:59:47.238Z,0.00
2018-01-01T02:00:47.038Z,0.00
2018-01-01T02:02:40.296Z,0.00
2018-01-01T02:03:40.226Z,0.00
2018-01-01T02:05:33.509Z,0.00
2018-01-01T02:06:33.419Z,0.00
2018-01-01T02:08:26.687Z,0.00
2018-01-01T02:09:26.613Z,0.00
2018-01-01T02:11:19.899Z,0.00
2018-01-01T02:12:19.807Z,0.00
2018-01-01T02:14:13.088Z,0.00
2018-01-01T02:15:13.002Z,0.00
2018-01-01T02:17:06.364Z,0.00
2018-01-01T02:18:06.193Z,0.00
2018-01-01T02:19:59.476Z,0.00
2018-01-01T02:20:59.386Z,0.00
2018-01-01T02:22:52.645Z,0.00
2018-01-01T02:23:52.578Z,0.00
2018-01-01T02:25:45.967Z,0.00
2018-01-01T02:26:45.766Z,0.00
2018-01-01T02:28:39.030Z,0.00
2018-01-01T02:29:38.961Z,0.00
2018-01-01T02:31:32.245Z,0.00
2018-01-01T02:32:32.148Z,0.00
2018-01-01T02:34:25.430Z,0.00
2018-01-01T02:35:25.342Z,0.00
2018-01-01T02:37:18.638Z,0.00
2018-01-01T02:38:18.533Z,0.00
2018-01-01T02:40:11.804Z,0.00
2018-01-01T02:41:11.717Z,0.00
2018-01-01T02:43:05.086Z,0.00
2018-01-01T02:44:04.907Z,0.00
2018-01-01T02:45:58.185Z,0.00
2018-01-01T02:46:58.099Z,0.00
2018-01-01T02:48:51.376Z,0.00
2018-01-01T02:49:51.307Z,0.00
2018-01-01T02:51:44.588Z,0.00
2018-01-01T02:52:44.501Z,0.00
2018-01-01T02:54:37.886Z,0.00
2018-01-01T02:55:37.694Z,0.00
2018-01-01T02:57:30.956Z,0.00
2018-01-01T02:58:30.883Z,0.00
2018-01-01T03:00:24.164Z,0.00
2018-01-01T03:01:24.078Z,0.00
2018-01-01T03:03:17.377Z,0.00
2018-01-01T03:04:17.307Z,0.00
2018-01-01T03:06:10.692Z,0.00
2018-01-01T03:07:10.495Z,0.00
2018-01-01T03:09:03.757Z,0.00
2018-01-01T03:10:03.687Z,0.00
2018-01-01T03:11:56.964Z,0.00
2018-01-01T03:12:56.878Z,0.00
2018-01-01T03:14:50.157Z,0.00
2018-01-01T03:15:50.069Z,0.00
2018-01-01T03:17:43.437Z,0.00
2018-01-01T03:18:43.307Z,0.00
2018-01-01T03:20:36.584Z,0.00
2018-01-01T03:21:36.496Z,0.00
2018-01-01T03:23:29.755Z,0.00
2018-01-01T03:24:29.686Z,0.00
2018-01-01T03:26:22.964Z,0.00
2018-01-01T03:27:22.875Z,0.00
2018-01-01T03:29:16.138Z,0.00
2018-01-01T03:30:16.070Z,0.00
2018-01-01T03:32:09.955Z,0.00
2018-01-01T03:33:09.305Z,0.00
2018-01-01T03:35:03.580Z,0.00
2018-01-01T03:36:03.497Z,0.00
2018-01-01T03:37:56.753Z,0.00
2018-01-01T03:38:56.684Z,0.00
2018-01-01T03:40:50.068Z,0.00
2018-01-01T03:41:49.873Z,0.00
2018-01-01T03:43:43.980Z,0.00
2018-01-01T03:44:43.913Z,0.00
2018-01-01T03:46:38.191Z,0.00
2018-01-01T03:47:38.101Z,0.00
2018-01-01T03:49:31.374Z,0.00
2018-01-01T03:50:31.306Z,0.00
2018-01-01T03:52:24.587Z,0.00
2018-01-01T03:53:24.496Z,0.00
2018-01-01T03:55:17.773Z,0.00
2018-01-01T03:56:17.684Z,0.00
2018-01-01T03:58:11.052Z,0.00
2018-01-01T03:59:10.876Z,0.00
2018-01-01T04:01:04.153Z,0.00
2018-01-01T04:02:04.064Z,0.00
2018-01-01T04:03:57.375Z,0.00
2018-01-01T04:04:57.305Z,0.00
2018-01-01T04:06:50.582Z,0.00
2018-01-01T04:07:50.494Z,0.00
2018-01-01T04:09:43.753Z,0.00
2018-01-01T04:10:43.682Z,0.00
2018-01-01T04:12:36.961Z,0.00
2018-01-01T04:13:36.867Z,0.00
2018-01-01T04:15:30.148Z,0.00
2018-01-01T04:16:30.063Z,0.00
2018-01-01T04:18:23.377Z,0.00
2018-01-01T04:19:23.307Z,0.00
2018-01-01T04:21:16.691Z,0.00
2018-01-01T04:22:16.493Z,0.00
2018-01-01T04:24:09.750Z,0.00
2018-01-01T04:25:09.681Z,0.00
2018-01-01T04:27:02.961Z,0.00
2018-01-01T04:28:02.868Z,0.00
2018-01-01T04:29:56.129Z,0.00
2018-01-01T04:30:56.061Z,0.00
2018-01-01T04:32:49.447Z,0.00
2018-01-01T04:33:49.306Z,0.00
2018-01-01T04:35:42.692Z,0.00
2018-01-01T04:36:42.495Z,0.00
2018-01-01T04:38:35.756Z,0.00
2018-01-01T04:39:35.682Z,0.00
2018-01-01T04:41:28.965Z,0.00
2018-01-01T04:42:28.868Z,0.00
2018-01-01T04:44:22.142Z,0.00
2018-01-01T04:45:22.058Z,0.00
2018-01-01T04:47:15.395Z,0.00
2018-01-01T04:48:15.307Z,0.00
2018-01-01T04:50:08.555Z,0.00
2018-01-01T04:51:08.489Z,0.00
2018-01-01T04:53:01.760Z,0.00
2018-01-01T04:54:01.673Z,0.00
2018-01-01T04:55:55.059Z,0.00
2018-01-01T04:56:54.862Z,0.00
2018-01-01T04:58:48.121Z,0.00
2018-01-01T04:59:48.050Z,0.00
2018-01-01T05:01:41.404Z,0.00
2018-01-01T05:02:41.315Z,0.00
2018-01-01T05:04:34.573Z,0.00
2018-01-01T05:05:34.508Z,0.00
2018-01-01T05:07:27.891Z,0.00
2018-01-01T05:08:27.695Z,0.00
2018-01-01T05:10:20.955Z,0.00
2018-01-01T05:11:20.884Z,0.00
2018-01-01T05:13:14.162Z,0.00
2018-01-01T05:14:14.074Z,0.00
2018-01-01T05:16:07.391Z,0.00
2018-01-01T05:17:07.306Z,0.00
2018-01-01T05:19:00.565Z,0.00
2018-01-01T05:20:00.495Z,0.00
2018-01-01T05:21:53.771Z,0.00
2018-01-01T05:22:53.684Z,0.00
2018-01-01T05:24:46.941Z,0.00
2018-01-01T05:25:46.874Z,0.00
2018-01-01T05:27:40.147Z,0.00
2018-01-01T05:28:40.062Z,0.00
2018-01-01T05:30:33.387Z,0.00
2018-01-01T05:31:33.303Z,0.00
2018-01-01T05:33:26.582Z,0.00
2018-01-01T05:34:26.496Z,0.00
2018-01-01T05:36:19.770Z,0.00
2018-01-01T05:37:19.682Z,0.00
2018-01-01T05:39:12.448Z,0.00
2018-01-01T05:40:12.379Z,0.00
2018-01-01T05:42:05.654Z,0.00
2018-01-01T05:43:05.571Z,0.00
2018-01-01T05:44:58.825Z,0.00
2018-01-01T05:45:58.754Z,0.00
2018-01-01T05:47:52.030Z,0.00
2018-01-01T05:48:51.943Z,0.00
2018-01-01T05:50:45.199Z,0.00
2018-01-01T05:51:45.128Z,0.00
2018-01-01T05:53:38.405Z,0.00
2018-01-01T05:54:38.315Z,0.00
2018-01-01T05:56:31.596Z,0.00
2018-01-01T05:57:31.510Z,0.00
2018-01-01T05:59:24.868Z,0.00
2018-01-01T06:00:24.686Z,0.00
2018-01-01T06:02:18.076Z,0.00
2018-01-01T06:03:17.875Z,0.00
2018-01-01T06:05:11.132Z,0.00
2018-01-01T06:06:11.063Z,0.00
2018-01-01T06:08:04.446Z,0.00
2018-01-01T06:09:04.247Z,0.00
2018-01-01T06:10:57.505Z,0.00
2018-01-01T06:11:57.435Z,0.00
2018-01-01T06:13:50.709Z,0.00
2018-01-01T06:14:50.620Z,0.00
2018-01-01T06:16:43.895Z,0.00
2018-01-01T06:17:43.806Z,0.00
2018-01-01T06:19:37.056Z,0.00
2018-01-01T06:20:36.983Z,0.00
2018-01-01T06:22:30.258Z,0.00
2018-01-01T06:23:30.173Z,0.00
2018-01-01T06:25:23.539Z,0.00
2018-01-01T06:26:23.358Z,0.00
2018-01-01T06:28:16.635Z,0.00
2018-01-01T06:29:16.546Z,0.00
2018-01-01T06:31:09.801Z,0.00
2018-01-01T06:32:09.731Z,0.00
2018-01-01T06:34:03.002Z,0.00
2018-01-01T06:35:02.917Z,0.00
2018-01-01T06:36:56.300Z,0.00
2018-01-01T06:37:56.102Z,0.00
2018-01-01T06:39:50.350Z,0.00
2018-01-01T06:40:50.281Z,0.00
2018-01-01T06:42:43.566Z,0.00
2018-01-01T06:43:43.479Z,0.00
2018-01-01T06:45:36.733Z,0.00
2018-01-01T06:46:36.660Z,0.00
2018-01-01T06:48:29.936Z,0.00
2018-01-01T06:49:29.847Z,0.00
2018-01-01T06:51:23.105Z,0.00
2018-01-01T06:52:23.034Z,0.00
2018-01-01T06:54:16.309Z,0.00
2018-01-01T06:55:16.218Z,0.00
2018-01-01T06:57:09.491Z,0.00
2018-01-01T06:58:09.404Z,0.00
2018-01-01T07:00:02.660Z,0.00
2018-01-01T07:01:02.589Z,0.00
2018-01-01T07:02:55.870Z,4.00
2018-01-01T07:03:55.778Z,4.00
2018-01-01T07:05:49.034Z,0.00
2018-01-01T07:06:48.962Z,4.00
2018-01-01T07:08:42.243Z,4.00
2018-01-01T07:09:42.152Z,4.00
2018-01-01T07:11:35.517Z,4.00
2018-01-01T07:12:35.336Z,4.00
2018-01-01T07:14:28.614Z,4.00
2018-01-01T07:15:28.524Z,4.00
2018-01-01T07:17:21.797Z,4.00
2018-01-01T07:18:21.712Z,4.00
2018-01-01T07:20:14.974Z,4.00
2018-01-01T07:21:14.902Z,4.00
2018-01-01T07:23:08.290Z,4.00
2018-01-01T07:24:08.088Z,4.00
2018-01-01T07:26:01.378Z,4.00
2018-01-01T07:27:01.305Z,8.00
2018-01-01T07:28:54.579Z,12.00
2018-01-01T07:29:54.488Z,12.00
2018-01-01T07:31:47.852Z,12.00
2018-01-01T07:32:47.669Z,16.00
2018-01-01T07:34:40.943Z,8.00
2018-01-01T07:35:40.852Z,12.00
2018-01-01T07:37:34.133Z,16.00
2018-01-01T07:38:34.036Z,16.00
2018-01-01T07:40:27.376Z,36.00
2018-01-01T07:41:27.304Z,48.00
2018-01-01T07:43:20.574Z,52.00
2018-01-01T07:44:20.484Z,56.00
2018-01-01T07:46:13.738Z,92.00
2018-01-01T07:47:13.665Z,108.00
2018-01-01T07:49:06.938Z,156.00
2018-01-01T07:50:06.846Z,176.00
2018-01-01T07:52:00.102Z,208.00
2018-01-01T07:53:00.029Z,228.00
2018-01-01T07:54:53.393Z,268.00
2018-01-01T07:55:53.303Z,228.00
2018-01-01T07:57:46.577Z,164.00
2018-01-01T07:58:46.486Z,192.00
2018-01-01T08:00:39.738Z,220.00
2018-01-01T08:01:39.668Z,248.00
2018-01-01T08:03:32.942Z,264.00
2018-01-01T08:04:32.852Z,260.00
2018-01-01T08:06:26.106Z,336.00
2018-01-01T08:07:26.033Z,388.00
2018-01-01T08:09:19.309Z,504.00
2018-01-01T08:10:19.221Z,560.00
2018-01-01T08:12:12.590Z,660.00
2018-01-01T08:13:12.403Z,724.00
2018-01-01T08:15:05.679Z,880.00
2018-01-01T08:16:05.590Z,984.00
2018-01-01T08:17:58.863Z,992.00
2018-01-01T08:18:58.774Z,1112.00
2018-01-01T08:20:53.139Z,1196.00
2018-01-01T08:21:52.958Z,1196.00
2018-01-01T08:23:46.337Z,1264.00
2018-01-01T08:24:46.144Z,1264.00
2018-01-01T08:26:39.400Z,1148.00
2018-01-01T08:27:39.332Z,1056.00
2018-01-01T08:29:32.602Z,1076.00
2018-01-01T08:30:32.505Z,1112.00
2018-01-01T08:32:25.763Z,1004.00
2018-01-01T08:33:25.694Z,1092.00
2018-01-01T08:35:18.968Z,1016.00
2018-01-01T08:36:18.875Z,996.00
2018-01-01T08:38:12.156Z,1056.00
2018-01-01T08:39:12.069Z,1104.00
2018-01-01T08:41:05.444Z,1212.00
2018-01-01T08:42:05.312Z,1172.00
2018-01-01T08:43:58.580Z,1220.00
2018-01-01T08:44:58.503Z,1196.00
2018-01-01T08:46:51.748Z,1096.00
2018-01-01T08:47:51.682Z,1136.00
2018-01-01T08:49:45.062Z,1204.00
2018-01-01T08:50:44.863Z,1248.00
2018-01-01T08:52:38.119Z,1144.00
2018-01-01T08:53:38.050Z,1088.00
2018-01-01T08:55:31.392Z,1204.00
2018-01-01T08:56:31.298Z,1260.00
2018-01-01T08:58:24.576Z,1288.00
2018-01-01T08:59:24.495Z,1280.00
2018-01-01T09:01:17.747Z,1240.00
2018-01-01T09:02:17.677Z,1248.00
2018-01-01T09:04:10.952Z,1124.00
2018-01-01T09:05:10.864Z,1100.00
2018-01-01T09:07:04.125Z,1048.00
2018-01-01T09:08:04.054Z,1036.00
2018-01-01T09:09:57.398Z,1036.00
2018-01-01T09:10:57.305Z,1028.00
2018-01-01T09:12:50.563Z,1004.00
2018-01-01T09:13:50.492Z,984.00
2018-01-01T09:15:43.877Z,884.00
2018-01-01T09:16:43.680Z,792.00
2018-01-01T09:18:36.955Z,816.00
2018-01-01T09:19:36.867Z,848.00
2018-01-01T09:21:31.121Z,928.00
2018-01-01T09:22:31.052Z,904.00
2018-01-01T09:24:24.322Z,1020.00
2018-01-01T09:25:24.241Z,1048.00
2018-01-01T09:27:17.493Z,944.00
2018-01-01T09:28:17.424Z,916.00
2018-01-01T09:30:10.691Z,1028.00
2018-01-01T09:31:10.600Z,976.00
2018-01-01T09:33:03.856Z,1064.00
2018-01-01T09:34:03.787Z,1496.00
2018-01-01T09:35:57.171Z,1636.00
2018-01-01T09:36:56.977Z,1612.00
2018-01-01T09:38:50.252Z,1548.00
2018-01-01T09:39:50.162Z,1676.00
2018-01-01T09:41:44.270Z,2300.00
2018-01-01T09:42:44.198Z,3016.00
2018-01-01T09:44:37.477Z,2260.00
2018-01-01T09:45:37.384Z,2332.00
2018-01-01T09:47:30.645Z,2224.00
2018-01-01T09:48:30.579Z,2180.00
2018-01-01T09:50:23.895Z,2096.00
2018-01-01T09:51:23.763Z,1736.00
2018-01-01T09:53:17.031Z,1428.00
2018-01-01T09:54:16.960Z,1432.00
2018-01-01T09:56:10.238Z,2012.00
2018-01-01T09:57:10.149Z,1928.00
2018-01-01T09:59:03.430Z,4024.00
2018-01-01T10:00:03.336Z,3808.00
2018-01-01T10:01:56.601Z,3016.00
2018-01-01T10:02:56.527Z,2980.00
2018-01-01T10:04:49.802Z,2076.00
2018-01-01T10:05:49.715Z,2020.00
2018-01-01T10:07:42.987Z,2028.00
2018-01-01T10:08:42.916Z,1576.00
2018-01-01T10:10:36.204Z,2168.00
2018-01-01T10:11:36.090Z,2048.00
2018-01-01T10:13:29.375Z,2008.00
2018-01-01T10:14:29.306Z,2068.00
2018-01-01T10:16:22.581Z,4720.00
2018-01-01T10:17:22.496Z,5776.00
2018-01-01T10:19:15.772Z,2588.00
2018-01-01T10:20:15.686Z,2552.00
2018-01-01T10:22:08.953Z,1824.00
2018-01-01T10:23:08.884Z,1860.00
2018-01-01T10:25:02.272Z,5128.00
2018-01-01T10:26:02.066Z,2492.00
2018-01-01T10:27:55.376Z,2648.00
2018-01-01T10:28:55.306Z,2524.00
2018-01-01T10:30:48.585Z,2408.00
2018-01-01T10:31:48.499Z,2132.00
2018-01-01T10:33:41.756Z,1668.00
2018-01-01T10:34:41.687Z,1512.00
2018-01-01T10:36:34.963Z,1808.00
2018-01-01T10:37:34.876Z,1736.00
2018-01-01T10:39:28.146Z,1604.00
2018-01-01T10:40:28.059Z,1808.00
2018-01-01T10:42:21.377Z,2376.00
2018-01-01T10:43:21.309Z,2408.00
2018-01-01T10:45:14.694Z,1804.00
2018-01-01T10:46:14.501Z,1460.00
2018-01-01T10:48:07.746Z,1800.00
2018-01-01T10:49:07.672Z,1808.00
2018-01-01T10:51:01.062Z,1812.00
2018-01-01T10:52:00.865Z,2040.00
2018-01-01T10:53:54.232Z,2488.00
2018-01-01T10:54:54.043Z,2368.00
2018-01-01T10:56:47.391Z,1828.00
2018-01-01T10:57:47.307Z,1464.00
2018-01-01T10:59:40.575Z,1328.00
2018-01-01T11:00:40.487Z,1320.00
2018-01-01T11:02:33.852Z,1316.00
2018-01-01T11:03:33.668Z,1088.00
2018-01-01T11:05:26.953Z,1252.00
2018-01-01T11:06:26.868Z,1572.00
2018-01-01T11:08:20.125Z,2288.00
2018-01-01T11:09:20.055Z,1768.00
2018-01-01T11:11:13.394Z,1448.00
2018-01-01T11:12:13.306Z,1540.00
2018-01-01T11:14:06.554Z,1816.00
2018-01-01T11:15:06.491Z,2480.00
2018-01-01T11:16:59.762Z,1744.00
2018-01-01T11:17:59.699Z,1580.00
2018-01-01T11:19:52.939Z,2408.00
2018-01-01T11:20:52.851Z,2064.00
2018-01-01T11:22:46.110Z,1684.00
2018-01-01T11:23:46.040Z,1724.00
2018-01-01T11:25:39.392Z,1884.00
2018-01-01T11:26:39.305Z,1760.00
2018-01-01T11:28:32.565Z,1524.00
2018-01-01T11:29:32.498Z,1616.00
2018-01-01T11:31:25.770Z,2368.00
2018-01-01T11:32:25.689Z,2488.00
2018-01-01T11:34:18.939Z,2720.00
2018-01-01T11:35:18.871Z,3020.00
2018-01-01T11:37:12.258Z,2764.00
2018-01-01T11:38:12.063Z,2508.00
2018-01-01T11:40:05.448Z,2076.00
2018-01-01T11:41:05.308Z,1928.00
2018-01-01T11:42:58.677Z,1776.00
2018-01-01T11:43:58.498Z,1756.00
2018-01-01T11:45:51.769Z,1488.00
2018-01-01T11:46:51.678Z,1628.00
2018-01-01T11:48:44.941Z,1320.00
2018-01-01T11:49:44.872Z,1344.00
2018-01-01T11:51:38.148Z,1872.00
2018-01-01T11:52:38.068Z,1948.00
2018-01-01T11:54:31.372Z,1988.00
2018-01-01T11:55:31.307Z,1956.00
2018-01-01T11:57:24.616Z,2392.00
2018-01-01T11:58:24.526Z,2736.00
2018-01-01T12:00:17.807Z,2716.00
2018-01-01T12:01:17.719Z,2800.00
2018-01-01T12:03:11.087Z,2600.00
2018-01-01T12:04:10.909Z,2440.00
2018-01-01T12:06:04.177Z,2336.00
2018-01-01T12:07:04.090Z,2388.00
2018-01-01T12:08:57.374Z,2368.00
2018-01-01T12:09:57.305Z,2348.00
2018-01-01T12:11:50.692Z,2208.00
2018-01-01T12:12:50.494Z,2616.00
2018-01-01T12:14:43.755Z,2216.00
2018-01-01T12:15:43.684Z,2036.00
2018-01-01T12:17:37.066Z,2288.00
2018-01-01T12:18:36.875Z,2332.00
2018-01-01T12:20:30.157Z,1860.00
2018-01-01T12:21:30.069Z,1556.00
2018-01-01T12:23:23.375Z,2092.00
2018-01-01T12:24:23.303Z,1628.00
2018-01-01T12:26:16.582Z,1552.00
2018-01-01T12:27:16.504Z,1576.00
2018-01-01T12:29:09.748Z,1636.00
2018-01-01T12:30:09.678Z,1628.00
2018-01-01T12:32:02.941Z,884.00
2018-01-01T12:33:02.850Z,1060.00
2018-01-01T12:34:56.115Z,944.00
2018-01-01T12:35:56.044Z,796.00
2018-01-01T12:37:49.396Z,880.00
2018-01-01T12:38:49.305Z,824.00
2018-01-01T12:40:42.581Z,672.00
2018-01-01T12:41:42.495Z,816.00
2018-01-01T12:43:35.864Z,860.00
2018-01-01T12:44:35.674Z,980.00
2018-01-01T12:46:28.953Z,1236.00
2018-01-01T12:47:28.864Z,1372.00
2018-01-01T12:49:22.117Z,1732.00
2018-01-01T12:50:22.045Z,2036.00
2018-01-01T12:52:15.398Z,2368.00
2018-01-01T12:53:15.302Z,2240.00
2018-01-01T12:55:08.676Z,2624.00
2018-01-01T12:56:08.496Z,2576.00
2018-01-01T12:58:01.776Z,2224.00
2018-01-01T12:59:01.687Z,1960.00
2018-01-01T13:00:54.965Z,1656.00
2018-01-01T13:01:54.881Z,1520.00
2018-01-01T13:03:48.133Z,1312.00
2018-01-01T13:04:48.060Z,1140.00
2018-01-01T13:06:41.395Z,832.00
2018-01-01T13:07:41.307Z,848.00
2018-01-01T13:09:34.555Z,916.00
2018-01-01T13:10:34.491Z,936.00
2018-01-01T13:12:27.880Z,812.00
2018-01-01T13:13:27.679Z,800.00
2018-01-01T13:15:20.946Z,688.00
2018-01-01T13:16:20.870Z,592.00
2018-01-01T13:18:14.160Z,576.00
2018-01-01T13:19:14.074Z,640.00
2018-01-01T13:21:07.461Z,872.00
2018-01-01T13:22:07.310Z,824.00
2018-01-01T13:24:00.566Z,880.00
2018-01-01T13:25:00.498Z,884.00
2018-01-01T13:26:53.776Z,740.00
2018-01-01T13:27:53.689Z,728.00
2018-01-01T13:29:46.939Z,556.00
2018-01-01T13:30:46.870Z,532.00
2018-01-01T13:32:40.146Z,604.00
2018-01-01T13:33:40.063Z,536.00
2018-01-01T13:35:33.380Z,460.00
2018-01-01T13:36:33.306Z,456.00
2018-01-01T13:38:26.691Z,456.00
2018-01-01T13:39:26.500Z,504.00
2018-01-01T13:41:19.765Z,576.00
2018-01-01T13:42:19.679Z,632.00
2018-01-01T13:44:13.044Z,688.00
2018-01-01T13:45:12.870Z,644.00
2018-01-01T13:47:06.148Z,636.00
2018-01-01T13:48:06.059Z,684.00
2018-01-01T13:49:59.379Z,760.00
2018-01-01T13:50:59.308Z,808.00
2018-01-01T13:52:52.583Z,816.00
2018-01-01T13:53:52.502Z,800.00
2018-01-01T13:55:45.865Z,716.00
2018-01-01T13:56:45.690Z,712.00
2018-01-01T13:58:38.967Z,680.00
2018-01-01T13:59:38.875Z,708.00
2018-01-01T14:01:32.165Z,808.00
2018-01-01T14:02:32.070Z,864.00
2018-01-01T14:04:25.375Z,900.00
2018-01-01T14:05:25.304Z,944.00
2018-01-01T14:07:18.586Z,948.00
2018-01-01T14:08:18.496Z,900.00
2018-01-01T14:10:11.747Z,856.00
2018-01-01T14:11:11.709Z,812.00
2018-01-01T14:13:04.958Z,748.00
2018-01-01T14:14:04.868Z,688.00
2018-01-01T14:15:58.128Z,476.00
2018-01-01T14:16:58.057Z,440.00
2018-01-01T14:18:51.394Z,500.00
2018-01-01T14:19:51.312Z,560.00
2018-01-01T14:21:44.693Z,680.00
2018-01-01T14:22:44.499Z,704.00
2018-01-01T14:24:37.790Z,676.00
2018-01-01T14:25:37.691Z,700.00
2018-01-01T14:27:30.970Z,752.00
2018-01-01T14:28:30.880Z,752.00
2018-01-01T14:30:24.130Z,728.00
2018-01-01T14:31:24.062Z,728.00
2018-01-01T14:33:17.392Z,736.00
2018-01-01T14:34:17.308Z,732.00
2018-01-01T14:36:10.592Z,752.00
2018-01-01T14:37:10.503Z,764.00
2018-01-01T14:39:03.868Z,744.00
2018-01-01T14:40:03.673Z,732.00
2018-01-01T14:41:56.967Z,656.00
2018-01-01T14:42:56.878Z,632.00
2018-01-01T14:44:50.137Z,564.00
2018-01-01T14:45:50.070Z,528.00
2018-01-01T14:47:43.398Z,372.00
2018-01-01T14:48:43.310Z,312.00
2018-01-01T14:50:36.677Z,280.00
2018-01-01T14:51:36.503Z,276.00
2018-01-01T14:53:29.784Z,296.00
2018-01-01T14:54:29.692Z,304.00
2018-01-01T14:56:22.969Z,272.00
2018-01-01T14:57:22.882Z,228.00
2018-01-01T14:59:16.161Z,160.00
2018-01-01T15:00:16.073Z,148.00
2018-01-01T15:02:08.883Z,132.00
2018-01-01T15:03:08.791Z,132.00
2018-01-01T15:05:02.054Z,124.00
2018-01-01T15:06:01.984Z,116.00
2018-01-01T15:07:55.265Z,132.00
2018-01-01T15:08:55.176Z,132.00
2018-01-01T15:10:48.544Z,140.00
2018-01-01T15:11:48.369Z,164.00
2018-01-01T15:13:41.648Z,164.00
2018-01-01T15:14:41.563Z,164.00
2018-01-01T15:16:35.837Z,136.00
2018-01-01T15:17:35.753Z,136.00
2018-01-01T15:19:29.000Z,124.00
2018-01-01T15:20:28.933Z,96.00
2018-01-01T15:22:22.214Z,72.00
2018-01-01T15:23:22.126Z,68.00
2018-01-01T15:25:15.491Z,60.00
2018-01-01T15:26:15.316Z,56.00
2018-01-01T15:28:08.589Z,52.00
2018-01-01T15:29:08.504Z,48.00
2018-01-01T15:31:01.758Z,44.00
2018-01-01T15:32:01.685Z,40.00
2018-01-01T15:33:54.971Z,32.00
2018-01-01T15:34:54.876Z,28.00
2018-01-01T15:36:48.285Z,20.00
2018-01-01T15:37:48.066Z,16.00
2018-01-01T15:39:41.433Z,16.00
2018-01-01T15:40:41.309Z,16.00
2018-01-01T15:42:34.586Z,12.00
2018-01-01T15:43:34.497Z,12.00
2018-01-01T15:45:27.868Z,12.00
2018-01-01T15:46:27.691Z,8.00
2018-01-01T15:48:21.077Z,8.00
2018-01-01T15:49:20.881Z,8.00
2018-01-01T15:51:14.140Z,4.00
2018-01-01T15:52:14.075Z,8.00
2018-01-01T15:54:07.396Z,4.00
2018-01-01T15:55:07.308Z,0.00
2018-01-01T15:57:00.606Z,4.00
2018-01-01T15:58:00.496Z,4.00
2018-01-01T15:59:53.865Z,0.00
2018-01-01T16:00:53.679Z,0.00
2018-01-01T16:02:46.959Z,0.00
2018-01-01T16:03:46.871Z,0.00
2018-01-01T16:05:40.131Z,0.00
2018-01-01T16:06:40.064Z,0.00
2018-01-01T16:08:33.397Z,0.00
2018-01-01T16:09:33.310Z,0.00
2018-01-01T16:11:26.595Z,0.00
2018-01-01T16:12:26.497Z,0.00
2018-01-01T16:14:19.775Z,0.00
2018-01-01T16:15:19.687Z,0.00
2018-01-01T16:17:12.969Z,0.00
2018-01-01T16:18:12.880Z,0.00
2018-01-01T16:20:06.136Z,0.00
2018-01-01T16:21:06.062Z,0.00
2018-01-01T16:22:59.450Z,0.00
2018-01-01T16:23:59.312Z,0.00
2018-01-01T16:25:52.677Z,0.00
2018-01-01T16:26:52.497Z,0.00
2018-01-01T16:28:45.774Z,0.00
2018-01-01T16:29:45.689Z,0.00
2018-01-01T16:31:38.943Z,0.00
2018-01-01T16:32:38.875Z,0.00
2018-01-01T16:34:32.159Z,0.00
2018-01-01T16:35:32.065Z,0.00
2018-01-01T16:37:25.397Z,0.00
2018-01-01T16:38:25.307Z,0.00
2018-01-01T16:40:18.558Z,0.00
2018-01-01T16:41:18.486Z,0.00
2018-01-01T16:43:11.764Z,0.00
2018-01-01T16:44:11.682Z,0.00
2018-01-01T16:46:04.933Z,0.00
2018-01-01T16:47:04.865Z,0.00
2018-01-01T16:48:58.143Z,0.00
2018-01-01T16:49:58.054Z,0.00
2018-01-01T16:51:51.375Z,0.00
2018-01-01T16:52:51.305Z,0.00
2018-01-01T16:54:44.689Z,0.00
2018-01-01T16:55:44.495Z,0.00
2018-01-01T16:57:37.880Z,0.00
2018-01-01T16:58:37.689Z,0.00
2018-01-01T17:00:30.943Z,0.00
2018-01-01T17:01:30.874Z,0.00
2018-01-01T17:03:24.149Z,0.00
2018-01-01T17:04:24.059Z,0.00
2018-01-01T17:06:17.376Z,0.00
2018-01-01T17:07:17.326Z,0.00
2018-01-01T17:09:10.580Z,0.00
2018-01-01T17:10:10.492Z,0.00
2018-01-01T17:12:03.859Z,0.00
2018-01-01T17:13:03.681Z,0.00
2018-01-01T17:14:56.956Z,0.00
2018-01-01T17:15:56.865Z,0.00
2018-01-01T17:17:50.147Z,0.00
2018-01-01T17:18:50.060Z,0.00
2018-01-01T17:20:43.375Z,0.00
2018-01-01T17:21:43.307Z,0.00
2018-01-01T17:23:36.585Z,0.00
2018-01-01T17:24:36.493Z,0.00
2018-01-01T17:26:29.751Z,0.00
2018-01-01T17:27:29.682Z,0.00
2018-01-01T17:29:22.948Z,0.00
2018-01-01T17:30:22.860Z,0.00
2018-01-01T17:32:16.131Z,0.00
2018-01-01T17:33:16.062Z,0.00
2018-01-01T17:35:09.393Z,0.00
2018-01-01T17:36:09.303Z,0.00
2018-01-01T17:38:02.689Z,0.00
2018-01-01T17:39:02.490Z,0.00
2018-01-01T17:40:55.856Z,0.00
2018-01-01T17:41:55.679Z,0.00
2018-01-01T17:43:48.951Z,0.00
2018-01-01T17:44:48.867Z,0.00
2018-01-01T17:46:42.122Z,0.00
2018-01-01T17:47:42.053Z,0.00
2018-01-01T17:49:35.392Z,0.00
2018-01-01T17:50:35.306Z,0.00
2018-01-01T17:52:28.568Z,0.00
2018-01-01T17:53:28.492Z,0.00
2018-01-01T17:55:21.769Z,0.00
2018-01-01T17:56:21.682Z,0.00
2018-01-01T17:58:14.954Z,0.00
2018-01-01T17:59:14.866Z,0.00
2018-01-01T18:01:08.123Z,0.00
2018-01-01T18:02:08.055Z,0.00
2018-01-01T18:04:01.393Z,0.00
2018-01-01T18:05:01.302Z,0.00
2018-01-01T18:06:54.558Z,0.00
2018-01-01T18:07:54.489Z,0.00
2018-01-01T18:09:47.766Z,0.00
2018-01-01T18:10:47.665Z,0.00
2018-01-01T18:12:41.034Z,0.00
2018-01-01T18:13:40.851Z,0.00
2018-01-01T18:15:34.124Z,0.00
2018-01-01T18:16:34.035Z,0.00
2018-01-01T18:18:27.393Z,0.00
2018-01-01T18:19:27.303Z,0.00
2018-01-01T18:21:20.559Z,0.00
2018-01-01T18:22:20.488Z,0.00
2018-01-01T18:24:13.763Z,0.00
2018-01-01T18:25:13.674Z,0.00
2018-01-01T18:27:06.929Z,0.00
2018-01-01T18:28:06.854Z,0.00
2018-01-01T18:30:00.123Z,0.00
2018-01-01T18:31:00.054Z,0.00
2018-01-01T18:32:53.376Z,0.00